Latest Weather Observations for Cape Moreton

IDQ60901

Issued at 9:01 pm EST Sunday 24 May 2015 (issued every 10 minutes, with the page automatically refreshed every 10 minutes)

About weather observations | Map of Brisbane area stations | Latest observations for Brisbane area | Other Formats
Station Details ID: 040043 Name: CAPE MORETON LIGHTHOUSE Lat: -27.03 Lon: 153.47 Height: 99.9 m
Data from the previous 72 hours. | See also: Recent months at Cape Moreton
Date/Time
EST
Tmp

°C
App
Tmp
°C
Dew
Point
°C
Rel
Hum
%
Delta-T

°C
Wind Press
QNH
hPa
Press
MSL
hPa
Rain
since
9 am
mm
Dir
 
Spd
km/h
Gust
km/h
Spd
kts
Gust
kts
24/09:00pm 19.6 11.7 12.8 65 3.8 SE 46 56 25 30 1028.6 1028.3 0.0
24/08:30pm 18.8 14.9 14.5 76 2.5 SSE 28 48 15 26 1028.7 1028.5 0.0
24/08:29pm 18.4 14.5 14.5 78 2.3 SSE 28 48 15 26 1028.8 1028.6 0.0
24/08:00pm 18.2 13.7 14.9 81 1.9 SSE 32 39 17 21 1028.8 1028.6 0.0
24/07:30pm 17.9 13.0 15.2 84 1.6 S 35 50 19 27 1028.6 1028.3 0.0
24/07:00pm 18.5 12.7 15.0 80 2.0 SSE 39 50 21 27 1028.2 1027.9 0.0
24/06:30pm 19.0 12.3 15.1 78 2.3 SSE 44 56 24 30 1027.9 1027.6 0.0
24/06:00pm 19.2 11.1 15.3 78 2.3 SE 52 65 28 35 1027.6 1027.3 0.0
24/05:30pm 19.0 12.5 15.1 78 2.3 SE 43 57 23 31 1027.5 1027.2 0.0
24/05:00pm 19.2 11.4 15.1 77 2.4 SSE 50 63 27 34 1027.0 1026.7 0.0
24/04:30pm 19.6 11.5 15.5 77 2.4 SE 52 63 28 34 1026.8 1026.5 0.0
24/04:00pm 19.4 11.7 15.5 78 2.3 SE 50 61 27 33 1026.5 1026.2 0.0
24/03:30pm 19.6 11.8 15.3 76 2.5 SE 50 59 27 32 1026.2 1025.9 0.0
24/03:00pm 19.3 11.4 14.8 75 2.6 SE 50 57 27 31 1026.3 1026.0 0.0
24/02:30pm 19.4 11.9 14.9 75 2.6 SE 48 63 26 34 1026.3 1026.0 0.0
24/02:00pm 19.6 11.3 14.8 74 2.8 SE 52 61 28 33 1026.1 1025.8 0.0
24/01:30pm 19.9 11.0 14.3 70 3.3 SSE 54 65 29 35 1025.7 1025.4 0.0
24/01:00pm 20.1 11.1 14.0 68 3.5 SE 54 63 29 34 1025.8 1025.5 0.0
24/12:30pm 20.2 11.2 14.1 68 3.5 SSE 54 65 29 35 1025.7 1025.4 0.0
24/12:00pm 19.7 12.8 13.9 69 3.3 SSE 43 57 23 31 1026.7 1026.4 0.0
24/11:30am 19.7 12.8 14.1 70 3.2 SSE 43 54 23 29 1027.0 1026.7 0.0
24/11:00am 19.8 13.7 14.2 70 3.2 SSE 39 54 21 29 1027.2 1026.9 0.0
24/10:30am 19.7 14.0 14.3 71 3.1 SSE 37 50 20 27 1027.6 1027.3 0.0
24/10:00am 19.3 14.1 14.6 74 2.7 SSE 35 50 19 27 1027.4 1027.1 0.0
24/09:30am 19.1 13.6 14.6 75 2.6 S 37 48 20 26 1027.7 1027.4 0.0
24/09:15am 18.9 14.3 15.0 78 2.3 S 33 52 18 28 1027.4 1027.1 0.0
24/09:00am 18.1 13.9 14.6 80 2.0 S 30 39 16 21 1027.5 1027.2 1.2
24/08:30am 17.6 11.5 14.1 80 2.0 S 39 48 21 26 1027.3 1027.0 1.2
24/08:00am 17.1 12.2 13.6 80 2.0 SSW 32 43 17 23 1027.1 1026.8 1.2
24/07:30am 16.0 11.6 12.9 82 1.7 SSW 28 37 15 20 1027.2 1026.9 1.2
24/07:00am 16.1 12.2 13.2 83 1.6 SSW 26 33 14 18 1027.0 1026.7 1.2
24/06:30am 16.1 12.3 13.6 85 1.4 SSW 26 35 14 19 1026.0 1025.7 1.2
24/06:00am 15.8 11.1 13.1 84 1.5 SSW 30 39 16 21 1025.7 1025.4 1.2
24/05:30am 15.8 10.8 13.3 85 1.4 SSW 32 39 17 21 1025.5 1025.2 1.2
24/05:00am 15.7 10.7 13.5 87 1.2 S 32 39 17 21 1025.0 1024.7 1.2
24/04:30am 15.1 11.3 13.5 90 0.9 SSW 26 35 14 19 1025.1 1024.8 1.2
24/04:00am 15.1 10.2 13.6 91 0.8 S 32 41 17 22 1024.8 1024.5 1.2
24/03:30am 14.9 10.7 13.4 91 0.8 SSW 28 37 15 20 1024.9 1024.6 1.2
24/03:00am 14.9 11.8 13.4 91 0.8 SSW 22 28 12 15 1025.2 1024.9 1.2
24/02:48am 15.2 11.0 13.6 90 0.9 S 28 46 15 25 1025.4 1025.1 1.2
24/02:30am 15.2 11.0 13.6 90 0.9 SSW 28 37 15 20 1025.2 1024.9 0.8
24/02:00am 15.9 11.1 14.1 89 1.0 S 32 43 17 23 1025.2 1024.9 0.8
24/01:44am 16.3 9.7 13.8 85 1.4 SSE 41 57 22 31 1025.0 1024.7 0.0
24/01:33am 17.0 9.5 13.9 82 1.8 SSE 46 65 25 35 1024.5 1024.2 0.0
24/01:30am 17.0 8.4 13.9 82 1.8 SSE 52 65 28 35 1024.4 1024.1 0.0
24/01:21am 17.1 10.1 14.2 83 1.7 SSE 44 65 24 35 1024.3 1024.0 0.0
24/01:07am 17.1 13.1 14.2 83 1.7 S 28 46 15 25 1024.7 1024.4 0.0
24/01:00am 16.5 12.6 13.2 81 1.8 S 26 39 14 21 1024.9 1024.6 0.0
24/12:45am 16.7 11.7 13.4 81 1.9 S 32 50 17 27 1024.7 1024.4 0.0
24/12:39am 17.0 12.1 13.7 81 1.9 S 32 50 17 27 1024.6 1024.3 0.0
24/12:30am 16.1 11.4 12.1 77 2.2 SSW 28 35 15 19 1024.7 1024.4 0.0
24/12:18am 16.6 11.4 12.8 78 2.1 S 32 46 17 25 1024.7 1024.4 0.0
24/12:00am 17.2 11.2 13.3 78 2.2 SSE 37 56 20 30 1024.7 1024.4 0.0
 
Date/Time
EST
Tmp

°C
App
Tmp
°C
Dew
Point
°C
Rel
Hum
%
Delta-T

°C
Wind Press
QNH
hPa
Press
MSL
hPa
Rain
since
9 am
mm
Dir
 
Spd
km/h
Gust
km/h
Spd
kts
Gust
kts
23/11:46pm 17.0 12.3 13.1 78 2.2 S 30 48 16 26 1024.8 1024.5 0.0
23/11:30pm 16.4 11.4 12.2 76 2.3 S 30 44 16 24 1024.8 1024.5 0.0
23/11:00pm 16.6 11.6 12.2 75 2.4 S 30 41 16 22 1024.8 1024.5 0.0
23/10:35pm 16.8 12.1 11.9 73 2.7 S 28 46 15 25 1024.9 1024.6 0.0
23/10:30pm 17.2 11.7 12.3 73 2.7 SSE 33 48 18 26 1024.9 1024.6 0.0
23/10:06pm 18.4 9.4 11.7 65 3.7 SE 50 65 27 35 1024.6 1024.3 0.0
23/10:00pm 19.4 9.8 10.9 58 4.6 ESE 52 61 28 33 1024.1 1023.8 0.0
23/09:30pm 19.2 8.5 10.2 56 4.8 SE 57 69 31 37 1023.8 1023.5 0.0
23/09:01pm 19.2 9.8 11.5 61 4.2 SE 52 70 28 38 1023.9 1023.6 0.0
23/09:00pm 19.2 10.3 12.0 63 4.0 SE 50 67 27 36 1024.0 1023.7 0.0
23/08:54pm 18.8 12.5 12.3 66 3.6 SSE 37 67 20 36 1024.0 1023.7 0.0
23/08:52pm 18.2 12.9 12.6 70 3.1 SSE 32 48 17 26 1024.3 1024.0 0.0
23/08:30pm 17.5 12.3 11.5 68 3.3 S 30 43 16 23 1024.5 1024.2 0.0
23/08:00pm 17.6 11.8 10.7 64 3.7 SSW 32 43 17 23 1024.6 1024.3 0.0
23/07:30pm 18.3 13.0 11.4 64 3.8 S 30 44 16 24 1024.6 1024.3 0.0
23/07:00pm 18.3 13.5 10.4 60 4.2 S 26 37 14 20 1024.3 1024.0 0.0
23/06:42pm 18.6 12.2 10.7 60 4.3 SSE 35 69 19 37 1024.2 1023.9 0.0
23/06:33pm 19.0 11.2 11.8 63 4.0 SE 44 63 24 34 1024.1 1023.8 0.0
23/06:30pm 19.3 10.7 11.8 62 4.2 SE 48 63 26 34 1023.7 1023.4 0.0
23/06:09pm 19.2 9.9 11.7 62 4.2 SE 52 70 28 38 1023.3 1023.0 0.0
23/06:00pm 19.0 9.2 11.3 61 4.2 SE 54 69 29 37 1023.1 1022.8 0.0
23/05:54pm 18.7 8.1 12.0 65 3.7 SE 59 78 32 42 1023.4 1023.1 0.0
23/05:47pm 19.0 9.0 12.5 66 3.6 SE 57 72 31 39 1022.9 1022.7 0.0
23/05:35pm 17.8 10.7 13.3 75 2.5 SE 43 61 23 33 1023.5 1023.2 0.0
23/05:30pm 17.8 9.7 13.3 75 2.5 SE 48 61 26 33 1023.7 1023.4 0.0
23/05:00pm 17.7 7.9 13.2 75 2.5 SE 57 78 31 42 1023.2 1022.9 0.0
23/04:45pm 18.4 9.5 13.0 71 3.1 SE 52 74 28 40 1022.9 1022.7 0.0
23/04:42pm 18.4 9.4 12.8 70 3.2 SE 52 74 28 40 1022.6 1022.4 0.0
23/04:33pm 19.0 11.7 12.7 67 3.5 SSE 43 61 23 33 1023.1 1022.8 0.0
23/04:30pm 19.0 11.0 12.5 66 3.6 SSE 46 61 25 33 1022.9 1022.7 0.0
23/04:08pm 19.0 10.8 13.0 68 3.4 SSE 48 67 26 36 1022.7 1022.5 0.0
23/04:00pm 19.0 10.4 13.0 68 3.4 SE 50 65 27 35 1022.4 1022.2 0.0
23/03:30pm 19.1 9.3 12.8 67 3.6 SE 56 78 30 42 1021.8 1021.6 0.0
23/03:02pm 19.7 11.1 12.9 65 3.9 SE 50 69 27 37 1021.6 1021.4 0.0
23/03:00pm 19.5 10.8 12.5 64 3.9 SE 50 67 27 36 1021.7 1021.5 0.0
23/02:30pm 19.7 10.3 12.7 64 4.0 SE 54 72 29 39 1021.6 1021.4 0.0
23/02:02pm 19.6 10.2 11.6 60 4.4 SE 52 70 28 38 1021.7 1021.5 0.0
23/02:00pm 19.6 9.8 11.6 60 4.4 SE 54 70 29 38 1021.5 1021.3 0.0
23/01:30pm 19.8 10.0 11.6 59 4.5 SE 54 74 29 40 1021.7 1021.5 0.0
23/01:07pm 19.6 9.5 11.6 60 4.4 SE 56 74 30 40 1021.2 1021.0 0.0
23/01:00pm 19.7 9.7 12.5 63 4.0 SE 57 74 31 40 1021.1 1020.9 0.0
23/12:30pm 19.8 10.0 12.8 64 4.0 SSE 56 74 30 40 1021.4 1021.2 0.0
23/12:01pm 19.8 9.8 12.8 64 4.0 SE 57 76 31 41 1021.7 1021.5 0.0
23/12:00pm 19.6 9.0 11.9 61 4.3 SE 59 76 32 41 1021.6 1021.4 0.0
23/11:30am 19.6 9.6 11.9 61 4.3 SSE 56 83 30 45 1021.8 1021.6 0.0
23/11:00am 19.7 8.2 11.5 59 4.5 SSE 63 82 34 44 1021.5 1021.3 0.0
23/10:30am 19.4 9.2 11.9 62 4.2 SSE 57 83 31 45 1021.8 1021.6 0.0
23/10:01am 19.2 9.6 12.2 64 3.9 SSE 54 76 29 41 1021.8 1021.6 0.0
23/10:00am 19.1 9.5 12.1 64 3.9 SSE 54 76 29 41 1021.7 1021.5 0.0
23/09:58am 19.0 9.8 12.3 65 3.7 SSE 52 76 28 41 1021.7 1021.5 0.0
23/09:46am 18.7 11.8 12.7 68 3.4 S 41 72 22 39 1022.0 1021.8 0.0
23/09:35am 18.2 12.4 12.6 70 3.1 S 35 54 19 29 1022.5 1022.3 0.0
23/09:30am 18.2 12.0 12.6 70 3.1 S 37 54 20 29 1022.4 1022.2 0.0
23/09:25am 18.3 12.5 12.7 70 3.1 S 35 54 19 29 1022.2 1022.0 0.0
23/09:00am 18.1 13.3 13.0 72 2.9 S 30 43 16 23 1022.0 1021.8 0.0
23/08:30am 17.1 12.4 12.0 72 2.8 SSW 28 37 15 20 1021.7 1021.5 0.0
23/08:00am 16.5 10.6 11.0 70 3.0 SSW 33 46 18 25 1021.3 1021.1 0.0
23/07:30am 16.1 10.2 10.6 70 2.9 SSW 32 46 17 25 1021.0 1020.8 0.0
23/07:00am 15.9 9.7 10.2 69 3.0 SSW 33 46 18 25 1020.3 1020.1 0.0
23/06:34am 16.0 9.4 10.1 68 3.1 SSW 35 54 19 29 1020.1 1019.9 0.0
23/06:30am 15.9 9.3 10.0 68 3.1 SSW 35 46 19 25 1020.0 1019.7 0.0
23/06:00am 15.8 9.2 10.1 69 3.0 SSW 35 50 19 27 1019.7 1019.4 0.0
23/05:30am 15.7 10.1 10.2 70 2.9 SSW 30 43 16 23 1019.4 1019.1 0.0
23/05:00am 15.7 9.7 10.2 70 2.9 SSW 32 41 17 22 1019.1 1018.8 0.0
23/04:30am 16.1 9.4 9.8 66 3.3 SSW 35 50 19 27 1019.0 1018.7 0.0
23/04:00am 16.0 10.0 10.1 68 3.1 SSW 32 44 17 24 1018.7 1018.4 0.0
23/03:30am 16.2 9.9 9.8 66 3.4 SSW 33 50 18 27 1018.6 1018.3 0.0
23/03:00am 16.2 10.9 9.8 66 3.4 SSW 28 43 15 23 1018.6 1018.3 0.0
23/02:30am 16.2 11.0 10.3 68 3.1 SW 28 39 15 21 1018.7 1018.4 0.0
23/02:00am 15.8 11.8 10.3 70 2.9 SW 22 30 12 16 1018.8 1018.5 0.0
23/01:30am 15.9 11.1 10.4 70 2.9 SW 26 35 14 19 1018.9 1018.6 0.0
23/01:00am 15.6 11.3 10.6 72 2.7 SW 24 39 13 21 1019.0 1018.7 0.0
23/12:30am 15.3 10.1 10.1 71 2.7 SW 28 44 15 24 1018.8 1018.5 0.0
23/12:00am 15.0 10.1 9.8 71 2.7 SW 26 37 14 20 1018.6 1018.3 0.0
 
Date/Time
EST
Tmp

°C
App
Tmp
°C
Dew
Point
°C
Rel
Hum
%
Delta-T

°C
Wind Press
QNH
hPa
Press
MSL
hPa
Rain
since
9 am
mm
Dir
 
Spd
km/h
Gust
km/h
Spd
kts
Gust
kts
22/11:30pm 15.3 10.0 9.9 70 2.8 SW 28 43 15 23 1018.8 1018.5 0.0
22/11:00pm 15.3 10.0 9.9 70 2.8 SW 28 43 15 23 1018.7 1018.4 0.0
22/10:30pm 15.2 9.1 9.6 69 2.9 SW 32 41 17 22 1018.8 1018.5 0.0
22/10:00pm 15.1 9.2 9.2 68 3.0 SW 30 44 16 24 1018.8 1018.5 0.0
22/09:30pm 15.3 9.4 9.2 67 3.1 SW 30 48 16 26 1018.7 1018.4 0.0
22/09:29pm 15.3 9.4 9.2 67 3.1 SW 30 48 16 26 1018.7 1018.4 0.0
22/09:00pm 15.2 11.2 8.9 66 3.2 SW 20 35 11 19 1018.6 1018.3 0.0
22/08:30pm 15.3 10.9 8.8 65 3.3 SW 22 39 12 21 1018.4 1018.1 0.0
22/08:00pm 15.4 9.8 8.6 64 3.5 SW 28 41 15 22 1017.9 1017.6 0.0
22/07:30pm 15.4 10.1 8.4 63 3.6 SW 26 37 14 20 1017.5 1017.2 0.0
22/07:00pm 15.5 9.8 8.3 62 3.6 SW 28 48 15 26 1017.3 1017.0 0.0
22/06:30pm 15.6 9.2 8.4 62 3.7 SW 32 50 17 27 1016.7 1016.4 0.0
22/06:05pm 15.7 9.2 8.0 60 3.9 SW 32 50 17 27 1016.4 1016.1 0.0
22/06:00pm 15.7 9.0 8.0 60 3.9 SW 33 50 18 27 1016.4 1016.1 0.0
22/05:30pm 15.5 9.0 8.0 61 3.8 SW 32 50 17 27 1016.0 1015.7 0.0
22/05:16pm 15.8 9.0 7.8 59 4.0 SW 33 54 18 29 1015.7 1015.4 0.0
22/05:00pm 16.0 10.1 7.7 58 4.2 SW 28 43 15 23 1016.3 1016.0 0.0
22/04:30pm 16.5 10.6 7.7 56 4.4 SW 28 48 15 26 1016.1 1015.8 0.0
22/04:00pm 17.0 10.2 7.6 54 4.7 SW 33 56 18 30 1015.7 1015.4 0.0
22/03:30pm 17.2 9.6 7.5 53 4.9 SW 37 57 20 31 1014.8 1014.5 0.0
22/03:00pm 17.4 10.7 7.5 52 5.0 SW 32 50 17 27 1015.0 1014.7 0.0
22/02:30pm 17.7 10.2 8.0 53 5.0 SW 37 59 20 32 1014.8 1014.5 0.0
22/02:00pm 17.8 11.2 8.4 54 4.8 SW 33 56 18 30 1014.8 1014.5 0.0
22/01:37pm 17.6 10.5 7.9 53 5.0 SW 35 57 19 31 1014.9 1014.6 0.0
22/01:30pm 17.6 10.5 7.9 53 5.0 WSW 35 50 19 27 1014.9 1014.6 0.0
22/01:00pm 17.6 10.4 7.6 52 5.1 WSW 35 54 19 29 1014.9 1014.6 0.0
22/12:32pm 17.9 12.1 9.3 57 4.5 WSW 30 48 16 26 1015.7 1015.4 0.0
22/12:30pm 17.6 11.2 8.5 55 4.7 WSW 32 48 17 26 1015.6 1015.3 0.0
22/12:10pm 17.4 11.4 8.8 57 4.5 WSW 30 54 16 29 1015.7 1015.4 0.0
22/12:00pm 17.4 10.7 9.6 60 4.1 WSW 35 48 19 26 1015.9 1015.6 0.0
22/11:39am 17.0 11.0 8.7 58 4.3 WSW 30 50 16 27 1016.1 1015.8 0.0
22/11:30am 16.9 11.0 9.1 60 4.1 WSW 30 43 16 23 1016.4 1016.1 0.0
22/11:05am 16.9 10.6 9.6 62 3.8 WSW 33 52 18 28 1016.5 1016.2 0.0
22/11:00am 16.7 9.9 9.4 62 3.8 SW 35 52 19 28 1016.5 1016.2 0.0
22/10:37am 17.0 11.7 9.7 62 3.8 SW 28 46 15 25 1017.0 1016.7 0.0
22/10:30am 16.9 10.5 9.3 61 4.0 SW 33 46 18 25 1017.1 1016.8 0.0
22/10:00am 17.1 11.8 10.0 63 3.8 SW 28 46 15 25 1017.2 1016.9 0.0
22/09:52am 16.9 11.4 9.3 61 4.0 WSW 28 46 15 25 1017.2 1016.9 0.0
22/09:30am 16.2 11.7 10.1 67 3.2 WSW 24 33 13 18 1017.3 1017.0 0.0
22/09:00am 16.4 12.3 11.6 73 2.6 WSW 24 33 13 18 1017.2 1016.9 6.8
22/08:30am 16.5 12.8 11.6 73 2.7 WSW 22 30 12 16 1016.8 1016.5 6.8
22/08:00am 16.2 11.9 12.2 77 2.2 SW 26 35 14 19 1016.6 1016.3 6.8
22/07:30am 15.9 12.1 12.3 79 2.0 SW 24 33 13 18 1016.4 1016.1 6.8
22/07:00am 16.0 13.2 13.3 84 1.5 SW 20 30 11 16 1016.5 1016.2 6.8
22/06:30am 15.9 12.9 13.7 87 1.2 SW 22 33 12 18 1016.1 1015.8 6.8
22/06:00am 15.9 12.7 14.3 90 0.9 SW 24 35 13 19 1015.7 1015.4 6.8
22/05:30am 16.1 13.9 14.8 92 0.8 WSW 20 28 11 15 1015.6 1015.3 6.8
22/05:00am 16.4 14.3 15.3 93 0.6 WSW 20 28 11 15 1015.4 1015.1 6.8
22/04:30am 16.6 14.8 15.6 94 0.6 W 19 22 10 12 1015.5 1015.2 6.8
22/04:00am 16.4 14.6 15.4 94 0.6 W 19 26 10 14 1015.7 1015.4 6.8
22/03:30am 16.3 14.9 15.5 95 0.5 W 17 24 9 13 1015.9 1015.6 6.8
22/03:00am 16.2 14.7 15.4 95 0.5 W 17 22 9 12 1015.6 1015.3 6.8
22/02:30am 16.4 14.9 15.4 94 0.6 W 17 24 9 13 1016.0 1015.7 6.6
22/02:00am 16.5 14.7 15.5 94 0.6 W 19 24 10 13 1016.0 1015.7 6.0
22/01:30am 16.6 16.0 15.6 94 0.6 W 13 19 7 10 1016.4 1016.1 5.8
22/01:00am 17.0 16.5 16.0 94 0.6 WSW 13 19 7 10 1016.8 1016.5 5.4
22/12:30am 17.4 16.7 16.3 93 0.7 W 15 22 8 12 1017.1 1016.8 5.0
22/12:00am 18.7 19.1 17.2 91 0.9 SW 11 13 6 7 1017.0 1016.7 4.2
 
Date/Time
EST
Tmp

°C
App
Tmp
°C
Dew
Point
°C
Rel
Hum
%
Delta-T

°C
Wind Press
QNH
hPa
Press
MSL
hPa
Rain
since
9 am
mm
Dir
 
Spd
km/h
Gust
km/h
Spd
kts
Gust
kts
21/11:30pm 19.0 19.0 17.3 90 1.0 SSW 13 15 7 8 1017.3 1017.0 3.6
21/11:00pm 18.9 18.8 17.0 89 1.2 SW 13 17 7 9 1017.4 1017.1 3.6
21/10:30pm 19.1 18.9 16.7 86 1.5 SSW 13 15 7 8 1017.5 1017.2 3.6
21/10:00pm 19.7 20.3 16.9 84 1.7 S 9 13 5 7 1017.5 1017.2 3.6
21/09:30pm 19.8 19.7 17.0 84 1.7 SSE 13 17 7 9 1017.8 1017.5 3.6

Latest Capital City Observations: Canberra | Sydney | Melbourne | Brisbane | Adelaide | Perth | Hobart | Darwin

Other Formats:

Comma delimited format used in spreadsheet applications
http://www.bom.gov.au/fwo/IDQ60901/IDQ60901.94594.axf

JavaScript Object Notation format (JSON) in row-major order
http://www.bom.gov.au/fwo/IDQ60901/IDQ60901.94594.json